Time;durP1;ratioP1;P1;durP2;ratioP2;P2;SDS_P1;SDS_P2;PMS_P1;PMS_P2;Temp;Humidity;BMP_temperature;BMP_pressure;BME280_temperature;BME280_humidity;BME280_pressure;Samples;Min_cycle;Max_cycle;Signal;HPM_P1;HPM_P2
2023/08/12 00:01:28;;;;;;;6.60;4.60;;;;;;;;;;5016090;28;20038;-78
2023/08/12 00:04:16;;;;;;;6.25;4.00;;;;;;;;;;5000287;28;20441;-78
2023/08/12 00:07:01;;;;;;;8.73;4.53;;;;;;;;;;5014776;28;20397;-76
2023/08/12 00:09:47;;;;;;;8.93;4.97;;;;;;;;;;5015181;28;20050;-78
2023/08/12 00:12:34;;;;;;;7.15;4.60;;;;;;;;;;5014437;28;20069;-77
2023/08/12 00:15:19;;;;;;;7.32;5.38;;;;;;;;;;5000130;28;20050;-78
2023/08/12 00:18:06;;;;;;;6.18;4.22;;;;;;;;;;5014738;28;20041;-76
2023/08/12 00:20:51;;;;;;;9.88;4.05;;;;;;;;;;5014708;28;20037;-77
2023/08/12 00:23:40;;;;;;;6.25;4.10;;;;;;;;;;5014737;28;20054;-76
2023/08/12 00:26:27;;;;;;;5.55;3.60;;;;;;;;;;4999522;28;20057;-77
2023/08/12 00:29:12;;;;;;;5.72;4.10;;;;;;;;;;5006148;28;20038;-78
2023/08/12 00:31:57;;;;;;;5.38;3.72;;;;;;;;;;5006585;28;20045;-77
2023/08/12 00:34:43;;;;;;;7.45;3.97;;;;;;;;;;5016035;28;20041;-77
2023/08/12 00:37:29;;;;;;;7.40;4.22;;;;;;;;;;5008293;28;20397;-77
2023/08/12 00:40:14;;;;;;;5.85;4.20;;;;;;;;;;5008149;28;20046;-79
2023/08/12 00:42:59;;;;;;;5.25;4.20;;;;;;;;;;4995095;28;20038;-78
2023/08/12 00:45:46;;;;;;;5.60;4.05;;;;;;;;;;5016579;28;20053;-78
2023/08/12 00:48:32;;;;;;;6.80;3.75;;;;;;;;;;5016164;28;20053;-77
2023/08/12 00:51:18;;;;;;;8.60;3.88;;;;;;;;;;5001431;28;20046;-77
2023/08/12 00:54:05;;;;;;;7.15;3.72;;;;;;;;;;5007679;28;20113;-77
2023/08/12 00:56:51;;;;;;;5.47;3.75;;;;;;;;;;5008457;28;20054;-78
2023/08/12 00:59:39;;;;;;;6.28;3.40;;;;;;;;;;5020046;28;20042;-78
2023/08/12 01:02:25;;;;;;;5.75;3.63;;;;;;;;;;5015935;28;20049;-78
2023/08/12 01:05:11;;;;;;;6.47;4.07;;;;;;;;;;5016320;28;20054;-79
2023/08/12 01:07:56;;;;;;;5.43;3.47;;;;;;;;;;5007583;28;20408;-77
2023/08/12 01:10:49;;;;;;;5.68;3.10;;;;;;;;;;5008164;28;20058;-78
2023/08/12 01:13:34;;;;;;;3.97;2.83;;;;;;;;;;5015831;28;20416;-78
2023/08/12 01:16:22;;;;;;;5.38;2.88;;;;;;;;;;5007354;28;20484;-77
2023/08/12 01:19:16;;;;;;;9.05;3.20;;;;;;;;;;5007569;28;20057;-78
2023/08/12 01:22:03;;;;;;;6.80;2.85;;;;;;;;;;5007189;28;20037;-78
2023/08/12 01:24:51;;;;;;;4.90;3.40;;;;;;;;;;5015919;28;20396;-76
2023/08/12 01:27:36;;;;;;;5.03;3.00;;;;;;;;;;5015382;28;20050;-78
2023/08/12 01:30:23;;;;;;;9.88;5.25;;;;;;;;;;5015087;28;20401;-78
2023/08/12 01:33:16;;;;;;;6.03;3.67;;;;;;;;;;5015296;28;20041;-77
2023/08/12 01:36:09;;;;;;;10.05;4.40;;;;;;;;;;5021721;28;20053;-76
2023/08/12 01:38:56;;;;;;;8.90;4.50;;;;;;;;;;5007130;28;20050;-78
2023/08/12 01:41:41;;;;;;;9.23;4.40;;;;;;;;;;5007198;28;20045;-79
2023/08/12 01:44:26;;;;;;;8.25;4.15;;;;;;;;;;5008395;28;20045;-78
2023/08/12 01:47:11;;;;;;;6.10;4.00;;;;;;;;;;5012911;28;20054;-77
2023/08/12 01:49:57;;;;;;;14.68;4.40;;;;;;;;;;5012807;28;20053;-77
2023/08/12 01:52:42;;;;;;;7.35;4.40;;;;;;;;;;5021391;28;20393;-77
2023/08/12 01:55:28;;;;;;;5.80;3.97;;;;;;;;;;5013476;28;20050;-78
2023/08/12 01:58:14;;;;;;;5.32;3.83;;;;;;;;;;5012360;28;20050;-78
2023/08/12 02:01:00;;;;;;;6.80;3.47;;;;;;;;;;5007091;28;20050;-78
2023/08/12 02:03:45;;;;;;;5.70;3.58;;;;;;;;;;5020027;28;20042;-77
2023/08/12 02:06:31;;;;;;;6.15;4.07;;;;;;;;;;5006756;28;20046;-79
2023/08/12 02:09:16;;;;;;;9.25;4.47;;;;;;;;;;5015466;28;20046;-79
2023/08/12 02:12:01;;;;;;;8.00;4.30;;;;;;;;;;5014343;28;20054;-78
2023/08/12 02:14:47;;;;;;;6.82;4.70;;;;;;;;;;5007111;28;20050;-78
2023/08/12 02:17:33;;;;;;;8.10;4.68;;;;;;;;;;5006192;28;20050;-78
2023/08/12 02:20:18;;;;;;;10.50;4.50;;;;;;;;;;5006695;28;20050;-79
2023/08/12 02:23:03;;;;;;;5.82;4.43;;;;;;;;;;5014803;28;20046;-78
2023/08/12 02:25:49;;;;;;;6.70;4.45;;;;;;;;;;5014343;28;20046;-77
2023/08/12 02:28:35;;;;;;;9.43;4.57;;;;;;;;;;5014268;28;20401;-77
2023/08/12 02:31:20;;;;;;;6.25;4.50;;;;;;;;;;5006037;28;20046;-79
2023/08/12 02:34:06;;;;;;;6.97;4.43;;;;;;;;;;5021284;28;20045;-79
2023/08/12 02:36:51;;;;;;;6.43;4.32;;;;;;;;;;5014470;28;20050;-77
2023/08/12 02:39:37;;;;;;;13.52;4.72;;;;;;;;;;5014040;28;20046;-79
2023/08/12 02:42:23;;;;;;;10.52;3.40;;;;;;;;;;5014351;28;20461;-78
2023/08/12 02:45:08;;;;;;;4.82;3.22;;;;;;;;;;5005951;28;20046;-78
2023/08/12 02:47:54;;;;;;;5.32;3.10;;;;;;;;;;5005797;28;20037;-77
2023/08/12 02:50:39;;;;;;;5.63;3.47;;;;;;;;;;5014231;28;20490;-78
2023/08/12 02:53:25;;;;;;;6.45;3.25;;;;;;;;;;5005800;28;20480;-78
2023/08/12 02:56:11;;;;;;;5.80;3.50;;;;;;;;;;5005872;28;20054;-79
2023/08/12 02:58:56;;;;;;;7.00;3.17;;;;;;;;;;5006471;28;20046;-78
2023/08/12 03:01:42;;;;;;;8.50;3.22;;;;;;;;;;5006084;28;20401;-78
2023/08/12 03:04:29;;;;;;;6.07;3.45;;;;;;;;;;4999386;28;20050;-78
2023/08/12 03:07:14;;;;;;;4.72;3.38;;;;;;;;;;5005572;28;20477;-77
2023/08/12 03:10:00;;;;;;;6.82;3.30;;;;;;;;;;5013880;28;20144;-78
2023/08/12 03:12:45;;;;;;;4.60;3.55;;;;;;;;;;5005959;28;20050;-77
2023/08/12 03:15:31;;;;;;;7.47;2.92;;;;;;;;;;5005374;28;20049;-77
2023/08/12 03:18:17;;;;;;;5.45;3.10;;;;;;;;;;5005494;28;20049;-79
2023/08/12 03:21:08;;;;;;;4.15;2.85;;;;;;;;;;5005318;28;20045;-79
2023/08/12 03:23:54;;;;;;;3.60;2.92;;;;;;;;;;5013862;28;20038;-77
2023/08/12 03:26:40;;;;;;;7.38;3.08;;;;;;;;;;5005777;28;20042;-78
2023/08/12 03:29:26;;;;;;;6.15;2.97;;;;;;;;;;5013183;28;20485;-78
2023/08/12 03:32:11;;;;;;;4.82;3.10;;;;;;;;;;5005373;28;20079;-77
2023/08/12 03:34:56;;;;;;;5.22;3.10;;;;;;;;;;5004888;28;20046;-78
2023/08/12 03:37:41;;;;;;;5.93;3.35;;;;;;;;;;5006160;28;20408;-77
2023/08/12 03:40:27;;;;;;;5.90;3.20;;;;;;;;;;4991803;28;20041;-78
2023/08/12 03:43:13;;;;;;;5.18;3.17;;;;;;;;;;5005149;28;20050;-77
2023/08/12 03:46:00;;;;;;;6.90;3.10;;;;;;;;;;5005483;28;20401;-79
2023/08/12 03:48:46;;;;;;;6.18;3.22;;;;;;;;;;5005024;28;20045;-79
2023/08/12 03:51:31;;;;;;;6.93;3.28;;;;;;;;;;5013621;28;20038;-78
2023/08/12 03:54:18;;;;;;;4.63;3.42;;;;;;;;;;5005372;28;20049;-79
2023/08/12 03:57:04;;;;;;;10.63;3.30;;;;;;;;;;5018524;28;20409;-77
2023/08/12 03:59:50;;;;;;;5.95;3.25;;;;;;;;;;5002645;28;20054;-79
2023/08/12 04:02:36;;;;;;;4.38;2.60;;;;;;;;;;5004742;28;20477;-77
2023/08/12 04:05:21;;;;;;;3.92;3.00;;;;;;;;;;5005066;28;20050;-78
2023/08/12 04:08:08;;;;;;;6.05;3.00;;;;;;;;;;5019091;28;20478;-80
2023/08/12 04:10:52;;;;;;;6.40;3.20;;;;;;;;;;5018882;28;20050;-77
2023/08/12 04:13:38;;;;;;;5.38;3.13;;;;;;;;;;4995401;28;20057;-79
2023/08/12 04:16:23;;;;;;;9.95;3.15;;;;;;;;;;5008337;28;20061;-78
2023/08/12 04:19:08;;;;;;;5.65;3.50;;;;;;;;;;5008553;28;20049;-77
2023/08/12 04:21:53;;;;;;;4.53;3.15;;;;;;;;;;5006789;28;20041;-77
2023/08/12 04:24:38;;;;;;;8.73;3.35;;;;;;;;;;5015413;28;20049;-80
2023/08/12 04:27:24;;;;;;;6.03;2.95;;;;;;;;;;5008927;28;20046;-77
2023/08/12 04:30:10;;;;;;;4.78;3.15;;;;;;;;;;5007914;28;20409;-78
2023/08/12 04:32:56;;;;;;;5.78;3.28;;;;;;;;;;5009396;28;20503;-77
2023/08/12 04:35:43;;;;;;;10.48;4.30;;;;;;;;;;5006734;28;20058;-79
2023/08/12 04:38:31;;;;;;;6.57;4.15;;;;;;;;;;5008062;28;20042;-78
2023/08/12 04:41:18;;;;;;;7.45;4.50;;;;;;;;;;5007499;28;20385;-78
2023/08/12 04:44:05;;;;;;;10.57;5.00;;;;;;;;;;5006716;28;20049;-77
2023/08/12 04:46:50;;;;;;;17.45;9.93;;;;;;;;;;5004392;28;20042;-78
2023/08/12 04:49:36;;;;;;;11.75;6.03;;;;;;;;;;5008564;28;20391;-78
2023/08/12 04:52:22;;;;;;;9.85;4.32;;;;;;;;;;5015623;28;20397;-78
2023/08/12 04:55:10;;;;;;;8.38;4.13;;;;;;;;;;5007222;28;20440;-78
2023/08/12 04:57:57;;;;;;;7.05;3.80;;;;;;;;;;5015522;28;20421;-77
2023/08/12 05:00:42;;;;;;;8.70;3.95;;;;;;;;;;5002332;28;20405;-77
2023/08/12 05:03:28;;;;;;;6.80;3.50;;;;;;;;;;5002145;28;20042;-78
2023/08/12 05:06:13;;;;;;;5.75;3.58;;;;;;;;;;4974356;28;20042;-78
2023/08/12 05:08:59;;;;;;;7.47;3.92;;;;;;;;;;4988472;28;20054;-79
2023/08/12 05:11:44;;;;;;;8.23;4.13;;;;;;;;;;4988740;28;20055;-78
2023/08/12 05:14:30;;;;;;;5.85;3.53;;;;;;;;;;4981435;28;20042;-79
2023/08/12 05:17:15;;;;;;;8.20;3.25;;;;;;;;;;4988574;28;20401;-77
2023/08/12 05:20:03;;;;;;;5.55;3.10;;;;;;;;;;5009267;28;20045;-78
2023/08/12 05:22:49;;;;;;;4.72;2.67;;;;;;;;;;5006673;28;20050;-81
2023/08/12 05:25:34;;;;;;;4.30;2.70;;;;;;;;;;5007471;28;20050;-79
2023/08/12 05:28:19;;;;;;;7.50;2.97;;;;;;;;;;5003217;28;20409;-79
2023/08/12 05:31:04;;;;;;;5.25;2.63;;;;;;;;;;5014690;28;20049;-77
2023/08/12 05:33:50;;;;;;;5.22;2.80;;;;;;;;;;5012840;28;20046;-79
2023/08/12 05:36:36;;;;;;;7.07;2.83;;;;;;;;;;5013557;28;20049;-78
2023/08/12 05:39:21;;;;;;;6.43;2.50;;;;;;;;;;5014490;28;20050;-79
2023/08/12 05:42:12;;;;;;;3.97;2.60;;;;;;;;;;5014472;28;20042;-81
2023/08/12 05:44:57;;;;;;;4.28;2.75;;;;;;;;;;5004676;28;20045;-76
2023/08/12 05:48:08;;;;;;;3.88;2.88;;;;;;;;;;5014767;28;20045;-78
2023/08/12 05:50:54;;;;;;;5.47;3.40;;;;;;;;;;5013221;28;20050;-79
2023/08/12 05:53:39;;;;;;;10.30;3.58;;;;;;;;;;5005392;28;20050;-79
2023/08/12 05:56:30;;;;;;;7.88;3.38;;;;;;;;;;5014230;28;20046;-80
2023/08/12 05:59:16;;;;;;;6.53;2.60;;;;;;;;;;4990034;28;20041;-76
2023/08/12 06:02:01;;;;;;;5.10;2.70;;;;;;;;;;5013121;28;20041;-80
2023/08/12 06:04:46;;;;;;;3.55;2.63;;;;;;;;;;5014638;28;20401;-78
2023/08/12 06:07:32;;;;;;;3.53;2.28;;;;;;;;;;5014708;28;20473;-78
2023/08/12 06:10:18;;;;;;;7.50;3.95;;;;;;;;;;5012871;28;20034;-78
2023/08/12 06:13:03;;;;;;;6.05;2.53;;;;;;;;;;5013912;28;20406;-79
2023/08/12 06:15:49;;;;;;;7.32;2.45;;;;;;;;;;5009666;28;20053;-78
2023/08/12 06:18:34;;;;;;;6.70;2.92;;;;;;;;;;5014036;28;20404;-78
2023/08/12 06:21:20;;;;;;;5.95;2.75;;;;;;;;;;5004242;28;20397;-77
2023/08/12 06:24:06;;;;;;;6.43;2.78;;;;;;;;;;5013901;28;20054;-79
2023/08/12 06:26:51;;;;;;;3.95;2.60;;;;;;;;;;5011372;28;20054;-79
2023/08/12 06:29:36;;;;;;;3.45;2.55;;;;;;;;;;5013602;28;20046;-78
2023/08/12 06:32:21;;;;;;;4.53;2.50;;;;;;;;;;5013656;28;20050;-78
2023/08/12 06:35:07;;;;;;;2.97;2.30;;;;;;;;;;5013586;28;20037;-78
2023/08/12 06:37:52;;;;;;;5.53;2.60;;;;;;;;;;5013191;28;20404;-78
2023/08/12 06:40:38;;;;;;;7.05;2.60;;;;;;;;;;5013144;28;20050;-78
2023/08/12 06:43:24;;;;;;;6.22;2.63;;;;;;;;;;5013396;28;20484;-78
2023/08/12 06:46:09;;;;;;;4.82;2.47;;;;;;;;;;4997898;28;20045;-78
2023/08/12 06:48:55;;;;;;;5.40;2.58;;;;;;;;;;5013588;28;20141;-80
2023/08/12 06:51:41;;;;;;;5.07;2.80;;;;;;;;;;5013800;28;20041;-79
2023/08/12 06:54:26;;;;;;;7.28;3.50;;;;;;;;;;5013975;28;20037;-78
2023/08/12 06:57:11;;;;;;;3.85;2.55;;;;;;;;;;5013694;28;20054;-79
2023/08/12 06:59:57;;;;;;;6.05;2.47;;;;;;;;;;5014055;28;20046;-78
2023/08/12 07:02:43;;;;;;;4.85;2.80;;;;;;;;;;5013988;28;20045;-78
2023/08/12 07:05:28;;;;;;;3.05;2.20;;;;;;;;;;5013377;28;20046;-77
2023/08/12 07:08:14;;;;;;;5.13;2.70;;;;;;;;;;5005567;28;20041;-79
2023/08/12 07:10:59;;;;;;;6.35;2.80;;;;;;;;;;5013541;28;20046;-78
2023/08/12 07:13:46;;;;;;;4.78;2.67;;;;;;;;;;5013926;28;20050;-80
2023/08/12 07:16:30;;;;;;;6.20;2.60;;;;;;;;;;5005490;28;20129;-78
2023/08/12 07:19:16;;;;;;;4.68;2.83;;;;;;;;;;5013576;28;20046;-81
2023/08/12 07:22:02;;;;;;;5.70;2.40;;;;;;;;;;5013915;28;20054;-77
2023/08/12 07:24:47;;;;;;;4.72;2.90;;;;;;;;;;5013369;28;20037;-79
2023/08/12 07:27:33;;;;;;;8.48;2.67;;;;;;;;;;5013555;28;20050;-77
2023/08/12 07:30:18;;;;;;;8.60;2.33;;;;;;;;;;5013730;28;20054;-76
2023/08/12 07:33:04;;;;;;;3.85;2.42;;;;;;;;;;4999520;28;20493;-80
2023/08/12 07:35:50;;;;;;;7.68;2.70;;;;;;;;;;4993796;28;20038;-80
2023/08/12 07:38:36;;;;;;;4.45;2.63;;;;;;;;;;4992646;28;20050;-78
2023/08/12 07:41:21;;;;;;;5.30;2.50;;;;;;;;;;4984283;28;20051;-80
2023/08/12 07:44:06;;;;;;;11.88;2.78;;;;;;;;;;4991822;28;20042;-77
2023/08/12 07:46:52;;;;;;;3.88;3.30;;;;;;;;;;4985878;28;20046;-79
2023/08/12 07:49:38;;;;;;;4.70;3.40;;;;;;;;;;4996291;28;20050;-78
2023/08/12 07:52:23;;;;;;;5.40;2.58;;;;;;;;;;4989320;28;20046;-77
2023/08/12 07:55:09;;;;;;;20.67;15.88;;;;;;;;;;4987519;28;20054;-80
2023/08/12 07:57:54;;;;;;;4.85;2.63;;;;;;;;;;4996782;28;20490;-79
2023/08/12 08:00:40;;;;;;;196.68;154.50;;;;;;;;;;4996377;28;20067;-80
2023/08/12 08:03:25;;;;;;;6.82;3.10;;;;;;;;;;4995780;28;20038;-79
2023/08/12 08:06:10;;;;;;;30.13;21.60;;;;;;;;;;4996754;28;20046;-78
2023/08/12 08:08:56;;;;;;;18.67;13.15;;;;;;;;;;4996667;28;20043;-78
2023/08/12 08:11:41;;;;;;;11.23;5.95;;;;;;;;;;4997357;28;20046;-77
2023/08/12 08:14:27;;;;;;;12.82;4.72;;;;;;;;;;4996913;28;20054;-78
2023/08/12 08:17:12;;;;;;;12.15;4.93;;;;;;;;;;4997227;28;20046;-77
2023/08/12 08:19:58;;;;;;;6.15;2.58;;;;;;;;;;4997606;28;20046;-80
2023/08/12 08:22:43;;;;;;;3.58;2.20;;;;;;;;;;4988677;28;20050;-78
2023/08/12 08:25:28;;;;;;;5.72;2.20;;;;;;;;;;4974436;28;20046;-79
2023/08/12 08:28:14;;;;;;;4.68;2.20;;;;;;;;;;4982178;28;20047;-78
2023/08/12 08:30:59;;;;;;;4.43;1.90;;;;;;;;;;4996961;28;20046;-77
2023/08/12 08:33:45;;;;;;;4.90;2.03;;;;;;;;;;4996502;28;20485;-80
2023/08/12 08:36:31;;;;;;;4.15;2.22;;;;;;;;;;5001940;28;20046;-78
2023/08/12 08:39:16;;;;;;;2.95;2.00;;;;;;;;;;4997007;28;20493;-79
2023/08/12 08:42:04;;;;;;;13.38;2.70;;;;;;;;;;4996919;28;20046;-78
2023/08/12 08:44:53;;;;;;;4.97;2.50;;;;;;;;;;4997149;28;20046;-79
2023/08/12 08:47:38;;;;;;;3.10;2.33;;;;;;;;;;4996593;28;20393;-77
2023/08/12 08:50:24;;;;;;;4.20;2.30;;;;;;;;;;4996404;28;20042;-77
2023/08/12 08:53:09;;;;;;;6.07;2.33;;;;;;;;;;4996697;28;20046;-77
2023/08/12 08:55:55;;;;;;;4.43;2.25;;;;;;;;;;4996599;28;20050;-79
2023/08/12 08:58:41;;;;;;;4.50;2.22;;;;;;;;;;4995922;28;20046;-78
2023/08/12 09:01:28;;;;;;;3.78;2.20;;;;;;;;;;4998668;28;20058;-78
2023/08/12 09:04:15;;;;;;;8.23;2.50;;;;;;;;;;5001059;28;20057;-77
2023/08/12 09:07:01;;;;;;;4.53;2.28;;;;;;;;;;5015901;28;20046;-78
2023/08/12 09:09:52;;;;;;;4.70;1.95;;;;;;;;;;5016171;28;20045;-76
2023/08/12 09:12:37;;;;;;;3.78;2.28;;;;;;;;;;5015939;28;20034;-79
2023/08/12 09:15:23;;;;;;;4.57;2.20;;;;;;;;;;5015799;28;20050;-80
2023/08/12 09:18:09;;;;;;;4.38;2.30;;;;;;;;;;5000509;28;20050;-76
2023/08/12 09:20:55;;;;;;;3.67;2.30;;;;;;;;;;5015699;28;20122;-77
2023/08/12 09:23:41;;;;;;;8.30;2.33;;;;;;;;;;5013477;28;20405;-77
2023/08/12 09:26:26;;;;;;;3.03;2.00;;;;;;;;;;5014103;28;20041;-80
2023/08/12 09:29:12;;;;;;;3.47;2.00;;;;;;;;;;5015043;28;20046;-80
2023/08/12 09:32:11;;;;;;;6.80;2.25;;;;;;;;;;5007070;28;20046;-79
2023/08/12 09:34:56;;;;;;;3.03;2.38;;;;;;;;;;5021138;28;20405;-78
2023/08/12 09:37:41;;;;;;;3.38;2.30;;;;;;;;;;5015650;28;20054;-77
2023/08/12 09:40:27;;;;;;;6.13;2.67;;;;;;;;;;5021385;28;20053;-78
2023/08/12 09:43:12;;;;;;;6.90;2.65;;;;;;;;;;5015104;28;20046;-77
2023/08/12 09:46:01;;;;;;;5.30;2.80;;;;;;;;;;5015062;28;20041;-79
2023/08/12 09:48:46;;;;;;;4.05;2.35;;;;;;;;;;5000484;28;20054;-77
2023/08/12 09:51:36;;;;;;;4.22;2.58;;;;;;;;;;5006867;28;20050;-77
2023/08/12 09:54:25;;;;;;;3.70;2.40;;;;;;;;;;5014709;28;20050;-79
2023/08/12 09:57:14;;;;;;;4.38;2.40;;;;;;;;;;5015464;28;20046;-78
2023/08/12 10:00:01;;;;;;;3.50;2.42;;;;;;;;;;5014838;28;20469;-79
2023/08/12 10:02:47;;;;;;;10.23;3.10;;;;;;;;;;5006177;28;20049;-78
2023/08/12 10:05:33;;;;;;;7.82;2.80;;;;;;;;;;5014411;28;20453;-80
2023/08/12 10:08:19;;;;;;;5.68;2.53;;;;;;;;;;5013846;28;20046;-78
2023/08/12 10:11:04;;;;;;;4.55;2.30;;;;;;;;;;5014606;28;20045;-78
2023/08/12 10:13:50;;;;;;;12.98;2.63;;;;;;;;;;5006320;28;20053;-79
2023/08/12 10:16:36;;;;;;;3.75;2.45;;;;;;;;;;5006701;28;20049;-79
2023/08/12 10:19:25;;;;;;;3.88;2.33;;;;;;;;;;5014594;28;20042;-79
2023/08/12 10:22:10;;;;;;;4.47;2.30;;;;;;;;;;5013303;28;20050;-78
2023/08/12 10:24:58;;;;;;;8.70;2.58;;;;;;;;;;5013624;28;20385;-77
2023/08/12 10:27:44;;;;;;;4.63;2.70;;;;;;;;;;5014456;28;20038;-79
2023/08/12 10:30:30;;;;;;;4.22;2.42;;;;;;;;;;5006718;28;20050;-79
2023/08/12 10:33:18;;;;;;;4.93;2.40;;;;;;;;;;5014217;28;20473;-77
2023/08/12 10:36:05;;;;;;;3.35;2.45;;;;;;;;;;5014197;28;20042;-78
2023/08/12 10:38:50;;;;;;;3.88;2.33;;;;;;;;;;5014333;28;20053;-78
2023/08/12 10:41:36;;;;;;;5.50;2.40;;;;;;;;;;5013902;28;20041;-80
2023/08/12 10:44:25;;;;;;;6.57;2.67;;;;;;;;;;5014436;28;20388;-79
2023/08/12 10:47:11;;;;;;;4.25;2.42;;;;;;;;;;5013895;28;20046;-78
2023/08/12 10:49:57;;;;;;;4.18;2.40;;;;;;;;;;5005358;28;20046;-78
2023/08/12 10:52:45;;;;;;;4.53;2.53;;;;;;;;;;5013941;28;20041;-78
2023/08/12 10:55:30;;;;;;;5.85;2.38;;;;;;;;;;4998176;28;20385;-79
2023/08/12 10:58:28;;;;;;;3.90;2.30;;;;;;;;;;5005951;28;20054;-78
2023/08/12 11:01:19;;;;;;;3.70;2.38;;;;;;;;;;5013985;28;20053;-79
2023/08/12 11:04:17;;;;;;;3.83;2.75;;;;;;;;;;4998843;28;20046;-79
2023/08/12 11:07:15;;;;;;;5.10;2.70;;;;;;;;;;5013655;28;20041;-78
2023/08/12 11:10:25;;;;;;;8.55;2.75;;;;;;;;;;5017700;28;20049;-79
2023/08/12 11:13:10;;;;;;;4.70;2.60;;;;;;;;;;5033235;28;20049;-78
2023/08/12 11:16:09;;;;;;;6.68;3.35;;;;;;;;;;5016754;28;20049;-78
2023/08/12 11:18:55;;;;;;;5.25;2.42;;;;;;;;;;5021591;28;20046;-77
2023/08/12 11:21:42;;;;;;;5.25;2.60;;;;;;;;;;5017211;28;20041;-80
2023/08/12 11:24:33;;;;;;;4.65;2.42;;;;;;;;;;5032999;28;20049;-78
2023/08/12 11:27:19;;;;;;;4.68;2.22;;;;;;;;;;5019998;28;20042;-83
2023/08/12 11:30:05;;;;;;;4.93;2.45;;;;;;;;;;5022358;28;20034;-80
2023/08/12 11:32:52;;;;;;;4.47;2.80;;;;;;;;;;5040192;28;20057;-78
2023/08/12 11:35:38;;;;;;;3.15;2.42;;;;;;;;;;5024739;28;20046;-78
2023/08/12 11:38:23;;;;;;;4.50;2.47;;;;;;;;;;5014100;28;20049;-80
2023/08/12 11:41:09;;;;;;;3.80;2.20;;;;;;;;;;5023159;28;20477;-80
2023/08/12 11:43:54;;;;;;;4.95;2.58;;;;;;;;;;5022224;28;20037;-81
2023/08/12 11:46:40;;;;;;;3.72;2.47;;;;;;;;;;5028759;28;20050;-79
2023/08/12 11:49:25;;;;;;;5.05;2.50;;;;;;;;;;5026298;28;20037;-80
2023/08/12 11:52:11;;;;;;;5.38;2.60;;;;;;;;;;5034962;28;20045;-79
2023/08/12 11:54:57;;;;;;;4.20;2.72;;;;;;;;;;5028632;28;20049;-80
2023/08/12 11:57:43;;;;;;;5.45;2.90;;;;;;;;;;5029424;28;20049;-79
2023/08/12 12:00:29;;;;;;;7.38;2.80;;;;;;;;;;5028354;28;20049;-78
2023/08/12 12:03:16;;;;;;;13.25;2.88;;;;;;;;;;5021748;28;20041;-79
2023/08/12 12:06:02;;;;;;;6.38;2.42;;;;;;;;;;5036350;28;20041;-78
2023/08/12 12:08:49;;;;;;;9.50;3.05;;;;;;;;;;5031570;28;20049;-79
2023/08/12 12:11:34;;;;;;;4.95;2.80;;;;;;;;;;5035813;28;20054;-80
2023/08/12 12:14:21;;;;;;;13.50;4.20;;;;;;;;;;5035199;28;20061;-79
2023/08/12 12:17:10;;;;;;;2.45;2.13;;;;;;;;;;5021658;28;20054;-78
2023/08/12 12:19:57;;;;;;;6.85;2.60;;;;;;;;;;5036411;28;20038;-79
2023/08/12 12:22:45;;;;;;;5.90;2.90;;;;;;;;;;5036580;28;20053;-78
2023/08/12 12:25:30;;;;;;;8.23;4.60;;;;;;;;;;5032750;28;20049;-77
2023/08/12 12:28:16;;;;;;;8.13;2.78;;;;;;;;;;5030916;28;21097;-78
2023/08/12 12:31:01;;;;;;;3.47;2.25;;;;;;;;;;5032317;28;20469;-78
2023/08/12 12:33:47;;;;;;;3.72;2.30;;;;;;;;;;5038174;28;20049;-80
2023/08/12 12:36:37;;;;;;;5.65;3.45;;;;;;;;;;5034184;28;20053;-79
2023/08/12 12:39:24;;;;;;;3.33;2.58;;;;;;;;;;5033469;28;20388;-79
2023/08/12 12:42:22;;;;;;;3.83;2.30;;;;;;;;;;5035743;28;20049;-79
2023/08/12 12:45:14;;;;;;;3.67;2.17;;;;;;;;;;5034221;28;20045;-79
2023/08/12 12:47:59;;;;;;;3.97;2.25;;;;;;;;;;5034048;28;20034;-78
2023/08/12 12:50:45;;;;;;;3.50;2.33;;;;;;;;;;5027781;28;20037;-80
2023/08/12 12:53:31;;;;;;;3.55;2.25;;;;;;;;;;5035485;28;20476;-77
2023/08/12 12:56:17;;;;;;;2.28;1.88;;;;;;;;;;5035564;28;20045;-78
2023/08/12 12:59:02;;;;;;;8.20;2.38;;;;;;;;;;5035768;28;20484;-79
2023/08/12 13:01:54;;;;;;;4.13;2.10;;;;;;;;;;5035269;28;20038;-78
2023/08/12 13:04:39;;;;;;;4.15;1.90;;;;;;;;;;5035571;28;20041;-77
2023/08/12 13:07:29;;;;;;;6.95;2.35;;;;;;;;;;5034040;28;20041;-78
2023/08/12 13:10:17;;;;;;;5.93;2.15;;;;;;;;;;5036225;28;20423;-79
2023/08/12 13:13:03;;;;;;;4.03;2.30;;;;;;;;;;5033609;28;20488;-80
2023/08/12 13:15:52;;;;;;;7.10;3.05;;;;;;;;;;5025506;28;20045;-80
2023/08/12 13:18:37;;;;;;;6.95;2.60;;;;;;;;;;5034774;28;20049;-79
2023/08/12 13:21:23;;;;;;;3.83;2.30;;;;;;;;;;5035405;28;20041;-78
2023/08/12 13:24:08;;;;;;;6.13;2.30;;;;;;;;;;5031302;28;20046;-79
2023/08/12 13:26:54;;;;;;;7.85;3.22;;;;;;;;;;5030115;28;20042;-78
2023/08/12 13:29:40;;;;;;;11.23;2.40;;;;;;;;;;5006839;28;20046;-78
2023/08/12 13:32:25;;;;;;;4.00;2.38;;;;;;;;;;5024920;28;20057;-80
2023/08/12 13:35:11;;;;;;;3.22;2.35;;;;;;;;;;5021023;28;20472;-79
2023/08/12 13:37:56;;;;;;;4.35;2.17;;;;;;;;;;5035020;28;20397;-78
2023/08/12 13:40:43;;;;;;;3.92;2.08;;;;;;;;;;5035476;28;20046;-79
2023/08/12 13:43:30;;;;;;;5.13;2.50;;;;;;;;;;5026145;28;20049;-78
2023/08/12 13:46:15;;;;;;;4.63;3.00;;;;;;;;;;5034235;28;20405;-79
2023/08/12 13:49:00;;;;;;;4.72;2.47;;;;;;;;;;5020048;28;20488;-79
2023/08/12 13:51:46;;;;;;;3.83;2.00;;;;;;;;;;5035096;28;20038;-80
2023/08/12 13:54:32;;;;;;;3.17;2.15;;;;;;;;;;5035068;28;20045;-80
2023/08/12 13:57:17;;;;;;;3.35;2.30;;;;;;;;;;5046857;28;20476;-78
2023/08/12 14:00:09;;;;;;;4.22;2.22;;;;;;;;;;5035600;28;20042;-78
2023/08/12 14:02:59;;;;;;;3.40;2.30;;;;;;;;;;5046229;28;20045;-81
2023/08/12 14:05:45;;;;;;;3.30;2.28;;;;;;;;;;5037626;28;20396;-80
2023/08/12 14:08:31;;;;;;;4.82;2.50;;;;;;;;;;5026044;28;20045;-80
2023/08/12 14:11:16;;;;;;;2.22;2.00;;;;;;;;;;5038788;28;20058;-78
2023/08/12 14:14:03;;;;;;;5.30;2.45;;;;;;;;;;5037892;28;20041;-79
2023/08/12 14:16:49;;;;;;;6.80;2.97;;;;;;;;;;5033787;28;20037;-77
2023/08/12 14:19:35;;;;;;;4.20;2.33;;;;;;;;;;5032392;28;20042;-78
2023/08/12 14:22:22;;;;;;;5.15;3.00;;;;;;;;;;5034139;28;20484;-79
2023/08/12 14:25:07;;;;;;;4.10;2.60;;;;;;;;;;5019819;28;20050;-78
2023/08/12 14:27:53;;;;;;;6.63;2.83;;;;;;;;;;5013065;28;20038;-81
2023/08/12 14:30:38;;;;;;;5.78;2.70;;;;;;;;;;5014425;28;20058;-79
2023/08/12 14:33:24;;;;;;;4.30;2.75;;;;;;;;;;5014230;28;20046;-78
2023/08/12 14:36:11;;;;;;;5.82;3.10;;;;;;;;;;5014288;28;20045;-77
2023/08/12 14:38:57;;;;;;;3.45;2.63;;;;;;;;;;5033551;28;20361;-78
2023/08/12 14:41:43;;;;;;;3.92;2.60;;;;;;;;;;5027464;28;20042;-78
2023/08/12 14:44:28;;;;;;;4.45;2.50;;;;;;;;;;5038073;28;20045;-81
2023/08/12 14:47:14;;;;;;;5.13;2.75;;;;;;;;;;5025035;28;20046;-79
2023/08/12 14:49:59;;;;;;;3.28;2.30;;;;;;;;;;5018682;28;20049;-80
2023/08/12 14:52:46;;;;;;;5.22;2.67;;;;;;;;;;5024246;28;20484;-78
2023/08/12 14:55:31;;;;;;;5.30;2.80;;;;;;;;;;5033129;28;20041;-79
2023/08/12 14:58:17;;;;;;;3.50;2.30;;;;;;;;;;5038853;28;20057;-80
2023/08/12 15:01:03;;;;;;;6.20;2.38;;;;;;;;;;5033076;28;20484;-79
2023/08/12 15:03:48;;;;;;;6.57;2.65;;;;;;;;;;5033460;28;20041;-80
2023/08/12 15:06:34;;;;;;;4.25;2.75;;;;;;;;;;5033598;28;20053;-77
2023/08/12 15:09:20;;;;;;;7.75;2.97;;;;;;;;;;5032136;28;20037;-78
2023/08/12 15:12:05;;;;;;;4.13;2.65;;;;;;;;;;5032157;28;20037;-77
2023/08/12 15:14:52;;;;;;;4.75;2.60;;;;;;;;;;5032435;28;20050;-77
2023/08/12 15:17:38;;;;;;;6.03;2.70;;;;;;;;;;5033642;28;20045;-79
2023/08/12 15:20:24;;;;;;;6.25;2.67;;;;;;;;;;5033821;28;20404;-79
2023/08/12 15:23:09;;;;;;;6.00;2.42;;;;;;;;;;5033180;28;20505;-76
2023/08/12 15:25:55;;;;;;;3.35;2.28;;;;;;;;;;5032826;28;20389;-81
2023/08/12 15:28:41;;;;;;;3.78;2.50;;;;;;;;;;5033264;28;20054;-79
2023/08/12 15:31:27;;;;;;;4.03;2.50;;;;;;;;;;5033802;28;20037;-78
2023/08/12 15:34:12;;;;;;;3.83;2.50;;;;;;;;;;5025600;28;20053;-78
2023/08/12 15:36:57;;;;;;;4.85;2.58;;;;;;;;;;5031962;28;20041;-76
2023/08/12 15:39:43;;;;;;;8.48;2.80;;;;;;;;;;5033661;28;20049;-78
2023/08/12 15:42:28;;;;;;;4.93;2.75;;;;;;;;;;5032886;28;20385;-77
2023/08/12 15:45:14;;;;;;;4.68;2.47;;;;;;;;;;5033639;28;20037;-80
2023/08/12 15:48:00;;;;;;;4.30;2.67;;;;;;;;;;5033658;28;20053;-78
2023/08/12 15:50:45;;;;;;;4.13;2.50;;;;;;;;;;5018309;28;20046;-79
2023/08/12 15:53:31;;;;;;;4.82;2.60;;;;;;;;;;5033284;28;20041;-80
2023/08/12 15:56:16;;;;;;;4.72;2.70;;;;;;;;;;5033102;28;20045;-78
2023/08/12 15:59:06;;;;;;;6.38;2.63;;;;;;;;;;5024944;28;20053;-78
2023/08/12 16:01:52;;;;;;;3.25;2.42;;;;;;;;;;5033217;28;20046;-78
2023/08/12 16:04:37;;;;;;;3.63;2.65;;;;;;;;;;5024731;28;20049;-78
2023/08/12 16:07:22;;;;;;;4.15;2.38;;;;;;;;;;5019022;28;20041;-78
2023/08/12 16:10:09;;;;;;;3.10;2.20;;;;;;;;;;5033142;28;20488;-79
2023/08/12 16:12:54;;;;;;;6.32;2.63;;;;;;;;;;5021097;28;20050;-78
2023/08/12 16:15:40;;;;;;;3.75;2.63;;;;;;;;;;5037190;28;20385;-78
2023/08/12 16:18:26;;;;;;;6.00;2.80;;;;;;;;;;5036352;28;20045;-79
2023/08/12 16:21:11;;;;;;;4.38;2.50;;;;;;;;;;5036959;28;20057;-78
2023/08/12 16:23:57;;;;;;;4.28;2.50;;;;;;;;;;5036055;28;20049;-78
2023/08/12 16:26:42;;;;;;;6.30;2.67;;;;;;;;;;5035594;28;20038;-80
2023/08/12 16:29:27;;;;;;;5.63;3.05;;;;;;;;;;5036045;28;20045;-79
2023/08/12 16:32:13;;;;;;;5.22;2.78;;;;;;;;;;5036207;28;20046;-77
2023/08/12 16:34:59;;;;;;;7.43;3.00;;;;;;;;;;5036100;28;20049;-78